sensor_id;sensor_type;location;lat;lon;timestamp;pressure;altitude;pressure_sealevel;temperature;humidity
55916;BME280;41826;53.246;-6.670;2023-03-01T00:02:16;102599.41;;;4.38;100.00
55916;BME280;41826;53.246;-6.670;2023-03-01T00:04:42;102647.69;;;4.45;100.00
55916;BME280;41826;53.246;-6.670;2023-03-01T00:07:07;102656.28;;;4.70;100.00
55916;BME280;41826;53.246;-6.670;2023-03-01T00:09:32;102645.66;;;4.53;100.00
55916;BME280;41826;53.246;-6.670;2023-03-01T00:11:58;102644.53;;;4.84;100.00
55916;BME280;41826;53.246;-6.670;2023-03-01T00:14:26;102630.78;;;4.80;100.00
55916;BME280;41826;53.246;-6.670;2023-03-01T00:16:55;102624.06;;;4.74;100.00
55916;BME280;41826;53.246;-6.670;2023-03-01T00:19:20;102618.41;;;4.40;100.00
55916;BME280;41826;53.246;-6.670;2023-03-01T00:21:47;102667.53;;;4.24;100.00
55916;BME280;41826;53.246;-6.670;2023-03-01T00:24:13;102706.25;;;4.31;100.00
55916;BME280;41826;53.246;-6.670;2023-03-01T00:26:39;102735.53;;;4.37;100.00
55916;BME280;41826;53.246;-6.670;2023-03-01T00:29:04;102740.63;;;4.40;100.00
55916;BME280;41826;53.246;-6.670;2023-03-01T00:31:31;102759.09;;;4.32;100.00
55916;BME280;41826;53.246;-6.670;2023-03-01T00:34:00;102766.38;;;4.47;100.00
55916;BME280;41826;53.246;-6.670;2023-03-01T00:36:29;102775.97;;;4.45;100.00
55916;BME280;41826;53.246;-6.670;2023-03-01T00:38:54;102801.63;;;4.56;100.00
55916;BME280;41826;53.246;-6.670;2023-03-01T00:41:21;102826.50;;;4.63;100.00
55916;BME280;41826;53.246;-6.670;2023-03-01T00:43:52;102801.03;;;4.73;100.00
55916;BME280;41826;53.246;-6.670;2023-03-01T00:46:20;102813.66;;;4.33;100.00
55916;BME280;41826;53.246;-6.670;2023-03-01T00:48:46;102829.78;;;4.68;100.00
55916;BME280;41826;53.246;-6.670;2023-03-01T00:51:17;102795.97;;;4.68;100.00
55916;BME280;41826;53.246;-6.670;2023-03-01T00:53:43;102809.31;;;4.59;100.00
55916;BME280;41826;53.246;-6.670;2023-03-01T00:56:11;102814.19;;;4.68;100.00
55916;BME280;41826;53.246;-6.670;2023-03-01T00:58:37;102817.06;;;4.86;100.00
55916;BME280;41826;53.246;-6.670;2023-03-01T01:01:11;102753.19;;;4.77;100.00
55916;BME280;41826;53.246;-6.670;2023-03-01T01:03:46;102751.94;;;4.87;100.00
55916;BME280;41826;53.246;-6.670;2023-03-01T01:06:24;102772.53;;;4.70;100.00
55916;BME280;41826;53.246;-6.670;2023-03-01T01:08:51;102758.06;;;4.86;100.00
55916;BME280;41826;53.246;-6.670;2023-03-01T01:11:18;102717.00;;;5.16;100.00
55916;BME280;41826;53.246;-6.670;2023-03-01T01:13:46;102714.69;;;4.87;100.00
55916;BME280;41826;53.246;-6.670;2023-03-01T01:16:12;102730.41;;;4.84;100.00
55916;BME280;41826;53.246;-6.670;2023-03-01T01:18:37;102800.28;;;4.69;100.00
55916;BME280;41826;53.246;-6.670;2023-03-01T01:21:09;102844.56;;;4.68;100.00
55916;BME280;41826;53.246;-6.670;2023-03-01T01:23:36;102877.28;;;4.75;100.00
55916;BME280;41826;53.246;-6.670;2023-03-01T01:26:10;102907.06;;;4.66;100.00
55916;BME280;41826;53.246;-6.670;2023-03-01T01:28:37;102947.69;;;4.70;100.00
55916;BME280;41826;53.246;-6.670;2023-03-01T01:31:02;102970.69;;;4.83;100.00
55916;BME280;41826;53.246;-6.670;2023-03-01T01:33:28;102990.00;;;4.75;100.00
55916;BME280;41826;53.246;-6.670;2023-03-01T01:35:54;103025.03;;;4.65;100.00
55916;BME280;41826;53.246;-6.670;2023-03-01T01:38:19;103029.72;;;4.82;100.00
55916;BME280;41826;53.246;-6.670;2023-03-01T01:40:46;103048.44;;;4.65;100.00
55916;BME280;41826;53.246;-6.670;2023-03-01T01:45:48;103061.88;;;4.80;100.00
55916;BME280;41826;53.246;-6.670;2023-03-01T01:48:17;103122.72;;;4.75;100.00
55916;BME280;41826;53.246;-6.670;2023-03-01T01:50:44;103158.31;;;4.73;100.00
55916;BME280;41826;53.246;-6.670;2023-03-01T01:53:14;103215.41;;;4.80;100.00
55916;BME280;41826;53.246;-6.670;2023-03-01T01:55:44;103258.09;;;4.74;100.00
55916;BME280;41826;53.246;-6.670;2023-03-01T01:58:12;103275.16;;;4.84;100.00
55916;BME280;41826;53.246;-6.670;2023-03-01T02:00:39;103292.44;;;4.87;100.00
55916;BME280;41826;53.246;-6.670;2023-03-01T02:03:11;103321.06;;;4.87;100.00
55916;BME280;41826;53.246;-6.670;2023-03-01T02:08:17;103352.84;;;4.98;100.00
55916;BME280;41826;53.246;-6.670;2023-03-01T02:10:43;103354.25;;;5.10;100.00
55916;BME280;41826;53.246;-6.670;2023-03-01T02:13:10;103370.22;;;4.97;100.00
55916;BME280;41826;53.246;-6.670;2023-03-01T02:15:38;103375.34;;;5.00;100.00
55916;BME280;41826;53.246;-6.670;2023-03-01T02:18:05;103373.63;;;4.99;100.00
55916;BME280;41826;53.246;-6.670;2023-03-01T02:20:44;103355.50;;;4.96;100.00
55916;BME280;41826;53.246;-6.670;2023-03-01T02:23:13;103333.66;;;5.02;100.00
55916;BME280;41826;53.246;-6.670;2023-03-01T02:28:34;103239.16;;;5.28;100.00
55916;BME280;41826;53.246;-6.670;2023-03-01T02:31:01;103140.31;;;5.24;100.00
55916;BME280;41826;53.246;-6.670;2023-03-01T02:33:45;102989.72;;;5.36;100.00
55916;BME280;41826;53.246;-6.670;2023-03-01T02:36:17;102872.72;;;5.32;100.00
55916;BME280;41826;53.246;-6.670;2023-03-01T02:38:44;102781.44;;;5.35;100.00
55916;BME280;41826;53.246;-6.670;2023-03-01T02:41:13;102736.25;;;5.36;100.00
55916;BME280;41826;53.246;-6.670;2023-03-01T02:43:40;102717.47;;;5.28;100.00
55916;BME280;41826;53.246;-6.670;2023-03-01T02:46:08;102705.53;;;5.22;100.00
55916;BME280;41826;53.246;-6.670;2023-03-01T02:48:40;102714.88;;;5.28;100.00
55916;BME280;41826;53.246;-6.670;2023-03-01T02:54:07;102681.84;;;5.28;100.00
55916;BME280;41826;53.246;-6.670;2023-03-01T02:56:35;102679.88;;;5.35;100.00
55916;BME280;41826;53.246;-6.670;2023-03-01T02:59:01;102662.78;;;5.28;100.00
55916;BME280;41826;53.246;-6.670;2023-03-01T03:01:27;102638.56;;;5.26;100.00
55916;BME280;41826;53.246;-6.670;2023-03-01T03:04:09;102622.94;;;5.26;100.00
55916;BME280;41826;53.246;-6.670;2023-03-01T03:06:35;102588.19;;;5.27;100.00
55916;BME280;41826;53.246;-6.670;2023-03-01T03:09:01;102567.41;;;5.25;100.00
55916;BME280;41826;53.246;-6.670;2023-03-01T03:11:26;102527.25;;;5.31;100.00
55916;BME280;41826;53.246;-6.670;2023-03-01T03:13:51;102478.94;;;5.24;100.00
55916;BME280;41826;53.246;-6.670;2023-03-01T03:16:18;102440.97;;;5.38;100.00
55916;BME280;41826;53.246;-6.670;2023-03-01T03:18:43;102424.78;;;5.32;100.00
55916;BME280;41826;53.246;-6.670;2023-03-01T03:21:12;102396.22;;;5.30;100.00
55916;BME280;41826;53.246;-6.670;2023-03-01T03:23:37;102369.47;;;5.27;100.00
55916;BME280;41826;53.246;-6.670;2023-03-01T03:26:05;102365.81;;;5.31;100.00
55916;BME280;41826;53.246;-6.670;2023-03-01T03:28:31;102351.31;;;5.25;100.00
55916;BME280;41826;53.246;-6.670;2023-03-01T03:30:57;102353.25;;;5.20;100.00
55916;BME280;41826;53.246;-6.670;2023-03-01T03:33:24;102354.84;;;5.24;100.00
55916;BME280;41826;53.246;-6.670;2023-03-01T03:35:50;102355.94;;;5.18;100.00
55916;BME280;41826;53.246;-6.670;2023-03-01T03:38:17;102347.06;;;5.22;100.00
55916;BME280;41826;53.246;-6.670;2023-03-01T03:40:45;102340.03;;;5.25;100.00
55916;BME280;41826;53.246;-6.670;2023-03-01T03:43:16;102337.78;;;5.36;100.00
55916;BME280;41826;53.246;-6.670;2023-03-01T03:45:47;102325.13;;;5.28;100.00
55916;BME280;41826;53.246;-6.670;2023-03-01T03:48:13;102313.94;;;5.26;100.00
55916;BME280;41826;53.246;-6.670;2023-03-01T03:50:40;102308.03;;;5.22;100.00
55916;BME280;41826;53.246;-6.670;2023-03-01T03:53:10;102306.97;;;5.27;100.00
55916;BME280;41826;53.246;-6.670;2023-03-01T03:55:37;102300.22;;;5.22;100.00
55916;BME280;41826;53.246;-6.670;2023-03-01T03:58:09;102296.56;;;5.27;100.00
55916;BME280;41826;53.246;-6.670;2023-03-01T04:00:39;102278.88;;;5.33;100.00
55916;BME280;41826;53.246;-6.670;2023-03-01T04:03:05;102267.94;;;5.27;100.00
55916;BME280;41826;53.246;-6.670;2023-03-01T04:05:32;102261.16;;;5.22;100.00
55916;BME280;41826;53.246;-6.670;2023-03-01T04:07:57;102259.97;;;5.30;100.00
55916;BME280;41826;53.246;-6.670;2023-03-01T04:10:40;102248.16;;;5.22;100.00
55916;BME280;41826;53.246;-6.670;2023-03-01T04:13:08;102244.50;;;5.27;100.00
55916;BME280;41826;53.246;-6.670;2023-03-01T04:15:34;102256.16;;;5.18;100.00
55916;BME280;41826;53.246;-6.670;2023-03-01T04:18:00;102274.50;;;5.34;100.00
55916;BME280;41826;53.246;-6.670;2023-03-01T04:20:28;102293.59;;;5.15;100.00
55916;BME280;41826;53.246;-6.670;2023-03-01T04:25:25;102328.22;;;5.17;100.00
55916;BME280;41826;53.246;-6.670;2023-03-01T04:27:52;102347.56;;;5.12;100.00
55916;BME280;41826;53.246;-6.670;2023-03-01T04:30:17;102354.50;;;5.11;100.00
55916;BME280;41826;53.246;-6.670;2023-03-01T04:32:43;102372.03;;;5.08;100.00
55916;BME280;41826;53.246;-6.670;2023-03-01T04:35:08;102363.94;;;5.14;100.00
55916;BME280;41826;53.246;-6.670;2023-03-01T04:37:34;102358.06;;;5.09;100.00
55916;BME280;41826;53.246;-6.670;2023-03-01T04:40:00;102359.34;;;5.00;100.00
55916;BME280;41826;53.246;-6.670;2023-03-01T04:42:26;102361.81;;;5.03;100.00
55916;BME280;41826;53.246;-6.670;2023-03-01T04:44:52;102365.31;;;5.02;100.00
55916;BME280;41826;53.246;-6.670;2023-03-01T04:47:17;102365.31;;;5.02;100.00
55916;BME280;41826;53.246;-6.670;2023-03-01T04:49:42;102359.28;;;5.02;100.00
55916;BME280;41826;53.246;-6.670;2023-03-01T04:52:08;102352.38;;;5.00;100.00
55916;BME280;41826;53.246;-6.670;2023-03-01T04:54:35;102339.63;;;4.94;100.00
55916;BME280;41826;53.246;-6.670;2023-03-01T04:57:02;102314.25;;;4.99;100.00
55916;BME280;41826;53.246;-6.670;2023-03-01T04:59:28;102294.41;;;4.97;100.00
55916;BME280;41826;53.246;-6.670;2023-03-01T05:01:55;102278.00;;;4.95;100.00
55916;BME280;41826;53.246;-6.670;2023-03-01T05:04:22;102264.94;;;4.96;100.00
55916;BME280;41826;53.246;-6.670;2023-03-01T05:06:47;102250.81;;;5.02;100.00
55916;BME280;41826;53.246;-6.670;2023-03-01T05:09:13;102240.53;;;4.99;100.00
55916;BME280;41826;53.246;-6.670;2023-03-01T05:11:38;102232.31;;;5.08;100.00
55916;BME280;41826;53.246;-6.670;2023-03-01T05:14:05;102207.59;;;4.98;100.00
55916;BME280;41826;53.246;-6.670;2023-03-01T05:16:30;102211.97;;;4.97;100.00
55916;BME280;41826;53.246;-6.670;2023-03-01T05:18:57;102205.84;;;4.98;100.00
55916;BME280;41826;53.246;-6.670;2023-03-01T05:21:23;102189.34;;;4.99;100.00
55916;BME280;41826;53.246;-6.670;2023-03-01T05:23:49;102189.47;;;4.96;100.00
55916;BME280;41826;53.246;-6.670;2023-03-01T05:26:16;102189.75;;;5.09;100.00
55916;BME280;41826;53.246;-6.670;2023-03-01T05:28:43;102179.63;;;5.03;100.00
55916;BME280;41826;53.246;-6.670;2023-03-01T05:31:08;102166.81;;;4.98;100.00
55916;BME280;41826;53.246;-6.670;2023-03-01T05:33:38;102155.41;;;5.01;100.00
55916;BME280;41826;53.246;-6.670;2023-03-01T05:36:05;102137.28;;;4.99;100.00
55916;BME280;41826;53.246;-6.670;2023-03-01T05:38:31;102127.41;;;5.06;100.00
55916;BME280;41826;53.246;-6.670;2023-03-01T05:40:56;102127.88;;;4.97;100.00
55916;BME280;41826;53.246;-6.670;2023-03-01T05:43:22;102130.25;;;5.02;100.00
55916;BME280;41826;53.246;-6.670;2023-03-01T05:45:47;102134.22;;;5.28;100.00
55916;BME280;41826;53.246;-6.670;2023-03-01T05:48:13;102132.19;;;5.15;100.00
55916;BME280;41826;53.246;-6.670;2023-03-01T05:50:41;102144.25;;;4.99;100.00
55916;BME280;41826;53.246;-6.670;2023-03-01T05:53:14;102165.81;;;5.01;100.00
55916;BME280;41826;53.246;-6.670;2023-03-01T05:55:40;102193.81;;;4.96;100.00
55916;BME280;41826;53.246;-6.670;2023-03-01T05:58:11;102201.41;;;5.00;100.00
55916;BME280;41826;53.246;-6.670;2023-03-01T06:00:37;102218.03;;;4.98;100.00
55916;BME280;41826;53.246;-6.670;2023-03-01T06:03:02;102257.19;;;4.95;100.00
55916;BME280;41826;53.246;-6.670;2023-03-01T06:05:28;102276.44;;;4.91;100.00
55916;BME280;41826;53.246;-6.670;2023-03-01T06:07:54;102297.06;;;4.95;100.00
55916;BME280;41826;53.246;-6.670;2023-03-01T06:10:21;102317.09;;;4.93;100.00
55916;BME280;41826;53.246;-6.670;2023-03-01T06:12:47;102325.50;;;5.00;100.00
55916;BME280;41826;53.246;-6.670;2023-03-01T06:15:14;102337.97;;;5.12;100.00
55916;BME280;41826;53.246;-6.670;2023-03-01T06:17:41;102332.00;;;5.10;100.00
55916;BME280;41826;53.246;-6.670;2023-03-01T06:22:38;102359.97;;;5.05;100.00
55916;BME280;41826;53.246;-6.670;2023-03-01T06:25:05;102371.41;;;5.21;100.00
55916;BME280;41826;53.246;-6.670;2023-03-01T06:27:30;102347.31;;;5.16;100.00
55916;BME280;41826;53.246;-6.670;2023-03-01T06:29:56;102360.19;;;5.00;100.00
55916;BME280;41826;53.246;-6.670;2023-03-01T06:32:21;102368.06;;;4.99;100.00
55916;BME280;41826;53.246;-6.670;2023-03-01T06:34:47;102370.41;;;5.05;100.00
55916;BME280;41826;53.246;-6.670;2023-03-01T06:37:12;102381.78;;;5.03;100.00
55916;BME280;41826;53.246;-6.670;2023-03-01T06:39:38;102380.03;;;5.03;100.00
55916;BME280;41826;53.246;-6.670;2023-03-01T06:42:04;102394.00;;;5.00;100.00
55916;BME280;41826;53.246;-6.670;2023-03-01T06:44:29;102406.38;;;4.95;100.00
55916;BME280;41826;53.246;-6.670;2023-03-01T06:46:55;102416.22;;;4.89;100.00
55916;BME280;41826;53.246;-6.670;2023-03-01T06:49:20;102452.19;;;4.99;100.00
55916;BME280;41826;53.246;-6.670;2023-03-01T06:51:46;102512.81;;;4.81;100.00
55916;BME280;41826;53.246;-6.670;2023-03-01T06:54:12;102573.16;;;4.67;100.00
55916;BME280;41826;53.246;-6.670;2023-03-01T06:56:37;102666.03;;;4.65;100.00
55916;BME280;41826;53.246;-6.670;2023-03-01T06:59:03;102758.38;;;4.53;100.00
55916;BME280;41826;53.246;-6.670;2023-03-01T07:01:30;102856.31;;;4.53;100.00
55916;BME280;41826;53.246;-6.670;2023-03-01T07:03:55;102930.22;;;4.47;100.00
55916;BME280;41826;53.246;-6.670;2023-03-01T07:06:21;102988.47;;;4.42;100.00
55916;BME280;41826;53.246;-6.670;2023-03-01T07:08:47;103043.59;;;4.53;100.00
55916;BME280;41826;53.246;-6.670;2023-03-01T07:11:12;103112.22;;;4.49;100.00
55916;BME280;41826;53.246;-6.670;2023-03-01T07:13:38;103184.50;;;4.38;100.00
55916;BME280;41826;53.246;-6.670;2023-03-01T07:16:04;103248.53;;;4.42;100.00
55916;BME280;41826;53.246;-6.670;2023-03-01T07:18:29;103307.41;;;4.44;100.00
55916;BME280;41826;53.246;-6.670;2023-03-01T07:20:55;103336.97;;;4.42;100.00
55916;BME280;41826;53.246;-6.670;2023-03-01T07:23:20;103373.94;;;4.54;100.00
55916;BME280;41826;53.246;-6.670;2023-03-01T07:25:52;103366.34;;;4.45;100.00
55916;BME280;41826;53.246;-6.670;2023-03-01T07:28:18;103371.94;;;4.64;100.00
55916;BME280;41826;53.246;-6.670;2023-03-01T07:30:43;103330.63;;;4.52;100.00
55916;BME280;41826;53.246;-6.670;2023-03-01T07:33:09;103321.19;;;4.48;100.00
55916;BME280;41826;53.246;-6.670;2023-03-01T07:35:35;103294.31;;;4.49;100.00
55916;BME280;41826;53.246;-6.670;2023-03-01T07:38:00;103259.25;;;4.62;100.00
55916;BME280;41826;53.246;-6.670;2023-03-01T07:40:26;103212.19;;;4.71;100.00
55916;BME280;41826;53.246;-6.670;2023-03-01T07:42:55;103124.94;;;4.58;100.00
55916;BME280;41826;53.246;-6.670;2023-03-01T07:45:21;103072.66;;;4.67;100.00
55916;BME280;41826;53.246;-6.670;2023-03-01T07:47:50;103011.91;;;4.68;100.00
55916;BME280;41826;53.246;-6.670;2023-03-01T07:50:15;102949.47;;;4.68;100.00
55916;BME280;41826;53.246;-6.670;2023-03-01T07:52:41;102917.00;;;4.80;100.00
55916;BME280;41826;53.246;-6.670;2023-03-01T07:55:06;102872.38;;;4.66;100.00
55916;BME280;41826;53.246;-6.670;2023-03-01T07:57:32;102846.97;;;4.74;100.00
55916;BME280;41826;53.246;-6.670;2023-03-01T07:59:57;102818.41;;;4.72;100.00
55916;BME280;41826;53.246;-6.670;2023-03-01T08:02:22;102791.63;;;4.94;100.00
55916;BME280;41826;53.246;-6.670;2023-03-01T08:04:48;102775.66;;;4.80;100.00
55916;BME280;41826;53.246;-6.670;2023-03-01T08:07:13;102747.03;;;4.80;100.00
55916;BME280;41826;53.246;-6.670;2023-03-01T08:09:39;102738.31;;;4.81;100.00
55916;BME280;41826;53.246;-6.670;2023-03-01T08:12:04;102716.81;;;4.75;100.00
55916;BME280;41826;53.246;-6.670;2023-03-01T08:14:31;102688.53;;;4.90;100.00
55916;BME280;41826;53.246;-6.670;2023-03-01T08:16:57;102663.22;;;4.93;100.00
55916;BME280;41826;53.246;-6.670;2023-03-01T08:19:23;102649.03;;;5.02;100.00
55916;BME280;41826;53.246;-6.670;2023-03-01T08:21:48;102622.22;;;5.00;100.00
55916;BME280;41826;53.246;-6.670;2023-03-01T08:24:14;102594.06;;;4.88;100.00
55916;BME280;41826;53.246;-6.670;2023-03-01T08:26:39;102587.00;;;4.91;100.00
55916;BME280;41826;53.246;-6.670;2023-03-01T08:29:05;102579.22;;;4.90;100.00
55916;BME280;41826;53.246;-6.670;2023-03-01T08:31:33;102579.22;;;4.90;100.00
55916;BME280;41826;53.246;-6.670;2023-03-01T08:34:02;102547.75;;;4.96;100.00
55916;BME280;41826;53.246;-6.670;2023-03-01T08:36:38;102517.41;;;4.96;100.00
55916;BME280;41826;53.246;-6.670;2023-03-01T08:39:05;102498.91;;;5.03;100.00
55916;BME280;41826;53.246;-6.670;2023-03-01T08:41:32;102445.22;;;5.00;100.00
55916;BME280;41826;53.246;-6.670;2023-03-01T08:43:57;102406.19;;;5.00;100.00
55916;BME280;41826;53.246;-6.670;2023-03-01T08:46:31;102373.59;;;5.12;100.00
55916;BME280;41826;53.246;-6.670;2023-03-01T08:48:57;102334.22;;;4.99;100.00
55916;BME280;41826;53.246;-6.670;2023-03-01T08:51:23;102304.28;;;5.09;100.00
55916;BME280;41826;53.246;-6.670;2023-03-01T08:53:49;102248.34;;;4.99;100.00
55916;BME280;41826;53.246;-6.670;2023-03-01T08:56:15;102205.50;;;5.06;100.00
55916;BME280;41826;53.246;-6.670;2023-03-01T08:58:44;102174.56;;;5.00;100.00
55916;BME280;41826;53.246;-6.670;2023-03-01T09:01:11;102183.00;;;5.05;100.00
55916;BME280;41826;53.246;-6.670;2023-03-01T09:03:37;102181.31;;;5.04;100.00
55916;BME280;41826;53.246;-6.670;2023-03-01T09:06:05;102187.63;;;4.98;100.00
55916;BME280;41826;53.246;-6.670;2023-03-01T09:08:36;102203.59;;;5.29;100.00
55916;BME280;41826;53.246;-6.670;2023-03-01T09:11:06;102202.47;;;5.15;100.00
55916;BME280;41826;53.246;-6.670;2023-03-01T09:13:32;102200.16;;;5.09;100.00
55916;BME280;41826;53.246;-6.670;2023-03-01T09:16:00;102207.81;;;5.31;100.00
55916;BME280;41826;53.246;-6.670;2023-03-01T09:18:26;102219.44;;;5.24;100.00
55916;BME280;41826;53.246;-6.670;2023-03-01T09:20:51;102220.28;;;5.25;100.00
55916;BME280;41826;53.246;-6.670;2023-03-01T09:23:20;102227.47;;;5.19;100.00
55916;BME280;41826;53.246;-6.670;2023-03-01T09:25:46;102251.59;;;5.23;100.00
55916;BME280;41826;53.246;-6.670;2023-03-01T09:28:11;102267.69;;;5.12;100.00
55916;BME280;41826;53.246;-6.670;2023-03-01T09:30:36;102286.91;;;5.10;100.00
55916;BME280;41826;53.246;-6.670;2023-03-01T09:33:02;102304.19;;;5.11;100.00
55916;BME280;41826;53.246;-6.670;2023-03-01T09:35:27;102298.09;;;5.12;100.00
55916;BME280;41826;53.246;-6.670;2023-03-01T09:37:53;102315.97;;;5.19;100.00
55916;BME280;41826;53.246;-6.670;2023-03-01T09:40:21;102315.69;;;5.07;100.00
55916;BME280;41826;53.246;-6.670;2023-03-01T09:42:54;102346.25;;;5.41;100.00
55916;BME280;41826;53.246;-6.670;2023-03-01T09:45:34;102334.41;;;5.34;100.00
55916;BME280;41826;53.246;-6.670;2023-03-01T09:48:01;102326.75;;;5.31;100.00
55916;BME280;41826;53.246;-6.670;2023-03-01T09:50:34;102328.59;;;5.48;100.00
55916;BME280;41826;53.246;-6.670;2023-03-01T09:53:10;102306.94;;;5.64;100.00
55916;BME280;41826;53.246;-6.670;2023-03-01T09:55:48;102275.81;;;5.80;100.00
55916;BME280;41826;53.246;-6.670;2023-03-01T09:58:31;102212.91;;;5.52;100.00
55916;BME280;41826;53.246;-6.670;2023-03-01T10:04:09;102055.75;;;6.03;100.00
55916;BME280;41826;53.246;-6.670;2023-03-01T10:06:40;101974.56;;;5.78;100.00
55916;BME280;41826;53.246;-6.670;2023-03-01T10:09:16;101959.22;;;6.05;100.00
55916;BME280;41826;53.246;-6.670;2023-03-01T10:11:50;101920.13;;;6.05;100.00
55916;BME280;41826;53.246;-6.670;2023-03-01T10:14:34;101966.72;;;5.95;100.00
55916;BME280;41826;53.246;-6.670;2023-03-01T10:17:08;102009.91;;;5.99;100.00
55916;BME280;41826;53.246;-6.670;2023-03-01T10:19:45;102012.41;;;5.85;100.00
55916;BME280;41826;53.246;-6.670;2023-03-01T10:22:20;102078.69;;;5.62;100.00
55916;BME280;41826;53.246;-6.670;2023-03-01T10:24:50;102141.94;;;6.00;100.00
55916;BME280;41826;53.246;-6.670;2023-03-01T10:32:16;102237.88;;;5.92;100.00
55916;BME280;41826;53.246;-6.670;2023-03-01T10:34:42;102246.03;;;5.67;100.00
55916;BME280;41826;53.246;-6.670;2023-03-01T10:37:14;102280.47;;;5.74;100.00
55916;BME280;41826;53.246;-6.670;2023-03-01T10:40:07;102221.00;;;5.82;100.00
55916;BME280;41826;53.246;-6.670;2023-03-01T10:42:39;102159.41;;;5.81;100.00
55916;BME280;41826;53.246;-6.670;2023-03-01T10:48:17;102105.53;;;5.99;100.00
55916;BME280;41826;53.246;-6.670;2023-03-01T10:50:46;102071.03;;;6.43;100.00
55916;BME280;41826;53.246;-6.670;2023-03-01T10:53:36;101974.19;;;6.49;100.00
55916;BME280;41826;53.246;-6.670;2023-03-01T10:56:06;101926.59;;;6.29;100.00
55916;BME280;41826;53.246;-6.670;2023-03-01T10:58:33;101873.09;;;6.22;100.00
55916;BME280;41826;53.246;-6.670;2023-03-01T11:01:05;101837.81;;;6.01;100.00
55916;BME280;41826;53.246;-6.670;2023-03-01T11:03:37;101850.16;;;5.97;100.00
55916;BME280;41826;53.246;-6.670;2023-03-01T11:06:21;101814.66;;;5.79;100.00
55916;BME280;41826;53.246;-6.670;2023-03-01T11:08:48;101843.94;;;5.68;100.00
55916;BME280;41826;53.246;-6.670;2023-03-01T11:11:33;101842.16;;;5.69;100.00
55916;BME280;41826;53.246;-6.670;2023-03-01T11:14:05;101794.00;;;5.76;100.00
55916;BME280;41826;53.246;-6.670;2023-03-01T11:16:36;101786.59;;;5.84;100.00
55916;BME280;41826;53.246;-6.670;2023-03-01T11:21:34;101615.53;;;6.27;100.00
55916;BME280;41826;53.246;-6.670;2023-03-01T11:24:03;101541.22;;;6.76;100.00
55916;BME280;41826;53.246;-6.670;2023-03-01T11:26:31;101467.44;;;6.74;100.00
55916;BME280;41826;53.246;-6.670;2023-03-01T11:29:03;101419.44;;;6.89;100.00
55916;BME280;41826;53.246;-6.670;2023-03-01T11:31:30;101401.56;;;6.96;100.00
55916;BME280;41826;53.246;-6.670;2023-03-01T11:34:02;101341.13;;;7.15;100.00
55916;BME280;41826;53.246;-6.670;2023-03-01T11:36:44;101315.31;;;7.23;100.00
55916;BME280;41826;53.246;-6.670;2023-03-01T11:39:22;101303.84;;;7.13;100.00
55916;BME280;41826;53.246;-6.670;2023-03-01T11:42:05;101319.44;;;6.76;100.00
55916;BME280;41826;53.246;-6.670;2023-03-01T11:44:33;101348.25;;;7.00;100.00
55916;BME280;41826;53.246;-6.670;2023-03-01T12:00:31;101191.13;;;6.82;100.00
55916;BME280;41826;53.246;-6.670;2023-03-01T12:06:04;101249.69;;;6.78;100.00
55916;BME280;41826;53.246;-6.670;2023-03-01T12:09:56;101328.25;;;6.61;100.00
55916;BME280;41826;53.246;-6.670;2023-03-01T12:12:16;101496.59;;;6.39;100.00
55916;BME280;41826;53.246;-6.670;2023-03-01T12:17:31;101438.53;;;6.50;100.00
55916;BME280;41826;53.246;-6.670;2023-03-01T12:20:28;101454.09;;;6.51;100.00
55916;BME280;41826;53.246;-6.670;2023-03-01T12:33:54;101350.84;;;7.26;100.00
55916;BME280;41826;53.246;-6.670;2023-03-01T12:36:38;101347.84;;;7.19;100.00
55916;BME280;41826;53.246;-6.670;2023-03-01T12:42:15;101282.09;;;7.62;100.00
55916;BME280;41826;53.246;-6.670;2023-03-01T12:47:48;101163.88;;;7.23;100.00
55916;BME280;41826;53.246;-6.670;2023-03-01T12:50:23;101047.31;;;7.57;100.00
55916;BME280;41826;53.246;-6.670;2023-03-01T12:52:56;100916.31;;;7.96;100.00
55916;BME280;41826;53.246;-6.670;2023-03-01T13:00:39;100903.44;;;7.14;100.00
55916;BME280;41826;53.246;-6.670;2023-03-01T13:06:00;100942.81;;;7.00;100.00
55916;BME280;41826;53.246;-6.670;2023-03-01T13:08:36;100947.06;;;6.89;100.00
55916;BME280;41826;53.246;-6.670;2023-03-01T13:11:15;100919.63;;;7.19;100.00
55916;BME280;41826;53.246;-6.670;2023-03-01T13:13:41;100873.22;;;7.56;100.00
55916;BME280;41826;53.246;-6.670;2023-03-01T13:19:07;100816.00;;;7.08;100.00
55916;BME280;41826;53.246;-6.670;2023-03-01T13:21:33;100832.00;;;7.26;100.00
55916;BME280;41826;53.246;-6.670;2023-03-01T13:23:59;100830.59;;;7.56;100.00
55916;BME280;41826;53.246;-6.670;2023-03-01T13:26:24;100830.94;;;7.63;100.00
55916;BME280;41826;53.246;-6.670;2023-03-01T13:28:53;100808.28;;;7.41;100.00
55916;BME280;41826;53.246;-6.670;2023-03-01T13:33:49;100835.34;;;7.17;100.00
55916;BME280;41826;53.246;-6.670;2023-03-01T13:38:58;100902.75;;;7.23;100.00
55916;BME280;41826;53.246;-6.670;2023-03-01T13:46:48;100895.66;;;7.59;100.00
55916;BME280;41826;53.246;-6.670;2023-03-01T13:49:19;100857.66;;;7.66;100.00
55916;BME280;41826;53.246;-6.670;2023-03-01T13:51:49;100850.53;;;7.46;100.00
55916;BME280;41826;53.246;-6.670;2023-03-01T13:54:16;100872.63;;;7.19;100.00
55916;BME280;41826;53.246;-6.670;2023-03-01T13:56:45;100860.88;;;7.47;100.00
55916;BME280;41826;53.246;-6.670;2023-03-01T13:59:19;100888.41;;;7.18;100.00
55916;BME280;41826;53.246;-6.670;2023-03-01T14:01:53;100986.69;;;6.94;100.00
55916;BME280;41826;53.246;-6.670;2023-03-01T14:04:31;101112.69;;;6.60;100.00
55916;BME280;41826;53.246;-6.670;2023-03-01T14:07:17;101261.59;;;6.69;100.00
55916;BME280;41826;53.246;-6.670;2023-03-01T14:09:45;101328.69;;;6.67;100.00
55916;BME280;41826;53.246;-6.670;2023-03-01T14:15:06;101408.09;;;6.63;100.00
55916;BME280;41826;53.246;-6.670;2023-03-01T14:20:16;101344.31;;;6.55;100.00
55916;BME280;41826;53.246;-6.670;2023-03-01T14:22:42;101324.22;;;6.69;100.00